createdAt,value
2023-12-05T00:02:23.070Z,14.55
2023-12-05T00:04:50.077Z,14.80
2023-12-05T00:07:20.604Z,14.23
2023-12-05T00:09:48.910Z,14.60
2023-12-05T00:12:19.014Z,14.48
2023-12-05T00:14:46.860Z,15.10
2023-12-05T00:17:13.966Z,15.77
2023-12-05T00:19:40.875Z,17.35
2023-12-05T00:22:10.916Z,16.88
2023-12-05T00:24:37.901Z,15.90
2023-12-05T00:27:05.306Z,16.98
2023-12-05T00:29:32.154Z,15.52
2023-12-05T00:31:59.227Z,16.35
2023-12-05T00:34:27.280Z,16.10
2023-12-05T00:36:54.518Z,16.42
2023-12-05T00:39:21.907Z,15.85
2023-12-05T00:41:54.594Z,16.00
2023-12-05T00:44:21.596Z,15.63
2023-12-05T00:46:48.841Z,15.68
2023-12-05T00:49:18.715Z,16.30
2023-12-05T00:51:47.326Z,16.25
2023-12-05T00:54:15.866Z,15.23
2023-12-05T00:56:43.051Z,16.30
2023-12-05T00:59:13.261Z,15.52
2023-12-05T01:01:40.358Z,17.30
2023-12-05T01:04:07.838Z,14.77
2023-12-05T01:06:35.114Z,17.23
2023-12-05T01:09:07.706Z,15.07
2023-12-05T01:11:37.960Z,15.27
2023-12-05T01:14:06.989Z,17.13
2023-12-05T01:16:34.336Z,14.73
2023-12-05T01:19:01.903Z,15.82
2023-12-05T01:21:29.773Z,15.05
2023-12-05T01:23:56.652Z,16.58
2023-12-05T01:26:27.136Z,16.38
2023-12-05T01:28:56.255Z,15.13
2023-12-05T01:31:24.087Z,15.52
2023-12-05T01:33:51.229Z,15.55
2023-12-05T01:36:21.305Z,15.30
2023-12-05T01:38:48.156Z,14.88
2023-12-05T01:41:15.349Z,15.30
2023-12-05T01:43:44.941Z,15.43
2023-12-05T01:46:12.835Z,15.50
2023-12-05T01:48:41.736Z,15.75
2023-12-05T01:51:10.446Z,15.05
2023-12-05T01:53:40.434Z,14.77
2023-12-05T01:56:09.741Z,16.92
2023-12-05T01:58:38.516Z,14.45
2023-12-05T02:01:09.309Z,15.63
2023-12-05T02:03:37.242Z,14.27
2023-12-05T02:06:05.268Z,15.27
2023-12-05T02:08:33.542Z,16.35
2023-12-05T02:11:00.971Z,16.13
2023-12-05T02:13:27.834Z,15.15
2023-12-05T02:16:04.828Z,15.35
2023-12-05T02:18:40.718Z,15.52
2023-12-05T02:21:20.992Z,16.83
2023-12-05T02:24:11.747Z,15.93
2023-12-05T02:26:58.863Z,15.85
2023-12-05T02:29:28.344Z,16.02
2023-12-05T02:31:56.309Z,16.88
2023-12-05T02:34:23.365Z,15.45
2023-12-05T02:37:05.303Z,17.83
2023-12-05T02:39:42.572Z,16.25
2023-12-05T02:42:13.169Z,18.15
2023-12-05T02:44:51.359Z,16.38
2023-12-05T02:47:23.421Z,15.65
2023-12-05T02:49:51.544Z,17.63
2023-12-05T02:52:18.611Z,17.48
2023-12-05T02:54:45.523Z,17.60
2023-12-05T02:57:12.841Z,15.48
2023-12-05T02:59:39.655Z,16.48
2023-12-05T03:02:06.766Z,17.17
2023-12-05T03:04:33.729Z,16.13
2023-12-05T03:07:01.066Z,15.57
2023-12-05T03:09:28.262Z,18.77
2023-12-05T03:11:55.311Z,17.35
2023-12-05T03:14:22.576Z,15.80
2023-12-05T03:16:54.267Z,16.90
2023-12-05T03:19:25.867Z,18.75
2023-12-05T03:21:57.192Z,18.80
2023-12-05T03:24:27.029Z,19.25
2023-12-05T03:26:55.442Z,18.10
2023-12-05T03:29:22.275Z,17.00
2023-12-05T03:31:49.499Z,17.35
2023-12-05T03:34:19.447Z,19.40
2023-12-05T03:36:46.650Z,17.58
2023-12-05T03:39:13.573Z,17.63
2023-12-05T03:41:41.074Z,18.42
2023-12-05T03:44:10.471Z,19.20
2023-12-05T03:46:37.828Z,18.58
2023-12-05T03:49:04.808Z,17.17
2023-12-05T03:51:31.954Z,18.00
2023-12-05T03:53:58.797Z,17.77
2023-12-05T03:56:26.930Z,18.15
2023-12-05T03:58:53.915Z,18.95
2023-12-05T04:01:20.982Z,19.02
2023-12-05T04:03:48.003Z,18.38
2023-12-05T04:06:22.950Z,18.33
2023-12-05T04:08:50.915Z,18.02
2023-12-05T04:11:30.417Z,18.48
2023-12-05T04:13:57.388Z,19.00
2023-12-05T04:16:25.145Z,17.92
2023-12-05T04:18:52.663Z,17.45
2023-12-05T04:21:22.441Z,19.10
2023-12-05T04:23:50.473Z,18.38
2023-12-05T04:26:22.124Z,17.95
2023-12-05T04:28:48.995Z,18.10
2023-12-05T04:31:16.584Z,19.33
2023-12-05T04:33:46.690Z,17.63
2023-12-05T04:36:17.189Z,17.58
2023-12-05T04:38:46.906Z,16.42
2023-12-05T04:41:18.407Z,16.50
2023-12-05T04:43:46.868Z,18.87
2023-12-05T04:46:17.006Z,16.88
2023-12-05T04:48:45.071Z,19.00
2023-12-05T04:51:12.554Z,18.95
2023-12-05T04:53:42.295Z,17.40
2023-12-05T04:56:10.081Z,17.63
2023-12-05T04:58:37.176Z,19.23
2023-12-05T05:01:08.019Z,18.08
2023-12-05T05:03:34.973Z,18.52
2023-12-05T05:06:02.284Z,18.42
2023-12-05T05:08:29.144Z,18.42
2023-12-05T05:10:56.254Z,17.90
2023-12-05T05:13:23.119Z,18.13
2023-12-05T05:15:50.182Z,18.63
2023-12-05T05:18:17.409Z,18.80
2023-12-05T05:20:47.600Z,20.05
2023-12-05T05:23:14.390Z,16.92
2023-12-05T05:25:42.508Z,16.88
2023-12-05T05:28:15.117Z,17.67
2023-12-05T05:30:44.077Z,17.23
2023-12-05T05:33:11.059Z,19.10
2023-12-05T05:35:38.115Z,18.23
2023-12-05T05:38:05.117Z,19.75
2023-12-05T05:40:34.791Z,20.48
2023-12-05T05:43:01.944Z,18.13
2023-12-05T05:45:29.105Z,18.95
2023-12-05T05:47:59.073Z,19.23
2023-12-05T05:50:31.463Z,21.95
2023-12-05T05:52:58.281Z,19.27
2023-12-05T05:55:27.367Z,18.23
2023-12-05T05:57:57.260Z,19.25
2023-12-05T06:00:25.702Z,18.20
2023-12-05T06:02:55.432Z,18.20
2023-12-05T06:05:22.638Z,18.58
2023-12-05T06:07:49.512Z,18.83
2023-12-05T06:10:17.583Z,17.80
2023-12-05T06:12:44.360Z,17.48
2023-12-05T06:15:11.716Z,16.88
2023-12-05T06:17:38.518Z,17.60
2023-12-05T06:20:06.983Z,16.90
2023-12-05T06:22:33.778Z,18.73
2023-12-05T06:25:01.209Z,18.02
2023-12-05T06:27:31.072Z,17.05
2023-12-05T06:30:03.549Z,18.35
2023-12-05T06:32:36.667Z,17.92
2023-12-05T06:35:03.934Z,17.77
2023-12-05T06:37:30.743Z,18.13
2023-12-05T06:39:58.285Z,17.58
2023-12-05T06:42:26.173Z,17.25
2023-12-05T06:44:53.653Z,17.92
2023-12-05T06:47:20.499Z,17.48
2023-12-05T06:49:48.414Z,17.90
2023-12-05T06:52:16.454Z,18.10
2023-12-05T06:54:46.937Z,18.92
2023-12-05T06:57:16.424Z,19.50
2023-12-05T06:59:43.633Z,19.77
2023-12-05T07:02:13.431Z,18.00
2023-12-05T07:04:40.658Z,19.25
2023-12-05T07:07:09.026Z,20.15
2023-12-05T07:09:36.444Z,19.17
2023-12-05T07:12:03.257Z,19.33
2023-12-05T07:14:30.350Z,18.42
2023-12-05T07:17:04.554Z,17.23
2023-12-05T07:19:31.688Z,18.20
2023-12-05T07:22:01.549Z,18.55
2023-12-05T07:24:28.727Z,18.92
2023-12-05T07:27:00.651Z,19.20
2023-12-05T07:29:28.341Z,17.67
2023-12-05T07:31:56.298Z,18.50
2023-12-05T07:34:23.473Z,19.80
2023-12-05T07:36:50.341Z,18.50
2023-12-05T07:39:17.555Z,17.95
2023-12-05T07:41:44.515Z,18.73
2023-12-05T07:44:11.717Z,18.98
2023-12-05T07:46:43.372Z,18.42
2023-12-05T07:49:10.866Z,18.35
2023-12-05T07:51:38.699Z,17.95
2023-12-05T07:54:06.575Z,17.95
2023-12-05T07:56:33.661Z,19.15
2023-12-05T07:59:03.327Z,18.38
2023-12-05T08:01:33.667Z,16.88
2023-12-05T08:04:04.016Z,17.02
2023-12-05T08:06:31.085Z,18.65
2023-12-05T08:08:58.357Z,18.10
2023-12-05T08:11:28.030Z,17.70
2023-12-05T08:13:55.375Z,16.92
2023-12-05T08:16:22.448Z,17.98
2023-12-05T08:18:52.665Z,18.60
2023-12-05T08:21:19.765Z,18.98
2023-12-05T08:23:46.967Z,19.00
2023-12-05T08:26:16.997Z,18.60
2023-12-05T08:28:46.988Z,18.35
2023-12-05T08:31:13.940Z,20.17
2023-12-05T08:33:41.251Z,19.42
2023-12-05T08:36:08.492Z,18.45
2023-12-05T08:38:36.945Z,17.63
2023-12-05T08:41:04.351Z,20.55
2023-12-05T08:43:31.474Z,21.70
2023-12-05T08:46:00.001Z,20.27
2023-12-05T08:48:27.268Z,18.77
2023-12-05T08:50:54.466Z,19.75
2023-12-05T08:53:21.903Z,20.13
2023-12-05T08:55:48.677Z,19.25
2023-12-05T08:58:17.257Z,20.00
2023-12-05T09:00:45.177Z,20.48
2023-12-05T09:03:15.615Z,18.92
2023-12-05T09:05:42.618Z,19.33
2023-12-05T09:08:09.957Z,19.40
2023-12-05T09:10:42.732Z,19.13
2023-12-05T09:13:09.848Z,19.50
2023-12-05T09:15:36.743Z,19.88
2023-12-05T09:18:04.952Z,19.75
2023-12-05T09:20:32.287Z,19.48
2023-12-05T09:23:01.748Z,20.50
2023-12-05T09:25:29.097Z,18.75
2023-12-05T09:27:56.266Z,18.80
2023-12-05T09:30:23.572Z,19.63
2023-12-05T09:32:50.883Z,18.73
2023-12-05T09:35:20.867Z,20.17
2023-12-05T09:37:54.736Z,20.05
2023-12-05T09:40:24.207Z,18.73
2023-12-05T09:42:59.512Z,19.45
2023-12-05T09:45:34.919Z,19.27
2023-12-05T09:48:05.232Z,19.05
2023-12-05T09:50:35.932Z,19.33
2023-12-05T09:53:04.099Z,20.05
2023-12-05T09:55:31.115Z,19.88
2023-12-05T09:57:58.689Z,18.77
2023-12-05T10:00:26.605Z,20.95
2023-12-05T10:02:56.065Z,20.58
2023-12-05T10:05:25.370Z,20.27
2023-12-05T10:07:56.632Z,19.15
2023-12-05T10:10:25.347Z,21.60
2023-12-05T10:12:53.207Z,19.38
2023-12-05T10:15:23.862Z,19.75
2023-12-05T10:17:51.448Z,20.33
2023-12-05T10:20:18.944Z,18.38
2023-12-05T10:22:46.196Z,19.58
2023-12-05T10:25:16.104Z,17.05
2023-12-05T10:27:43.404Z,20.77
2023-12-05T10:30:10.787Z,20.83
2023-12-05T10:32:38.400Z,19.65
2023-12-05T10:35:06.081Z,20.88
2023-12-05T10:37:33.471Z,20.60
2023-12-05T10:40:00.891Z,19.65
2023-12-05T10:42:31.473Z,20.73
2023-12-05T10:44:58.669Z,19.10
2023-12-05T10:47:29.373Z,19.02
2023-12-05T10:49:56.599Z,18.13
2023-12-05T10:52:26.062Z,18.55
2023-12-05T10:54:58.048Z,19.77
2023-12-05T10:57:32.146Z,19.73
2023-12-05T11:00:00.047Z,18.65
2023-12-05T11:02:28.424Z,19.23
2023-12-05T11:04:59.379Z,16.83
2023-12-05T11:07:26.445Z,20.15
2023-12-05T11:09:53.346Z,19.17
2023-12-05T11:12:25.330Z,18.98
2023-12-05T11:14:56.564Z,19.92
2023-12-05T11:17:35.517Z,19.33
2023-12-05T11:20:17.191Z,18.67
2023-12-05T11:23:03.657Z,19.50
2023-12-05T11:25:30.494Z,19.20
2023-12-05T11:28:34.413Z,19.70
2023-12-05T11:31:33.237Z,20.15
2023-12-05T11:34:19.302Z,18.23
2023-12-05T11:37:20.691Z,18.27
2023-12-05T11:39:55.236Z,18.95
2023-12-05T11:42:22.787Z,17.30
2023-12-05T11:44:52.887Z,19.42
2023-12-05T11:47:30.297Z,19.33
2023-12-05T11:50:00.781Z,18.95
2023-12-05T11:52:29.389Z,19.95
2023-12-05T11:54:58.539Z,18.73
2023-12-05T11:57:27.019Z,19.38
2023-12-05T11:59:57.329Z,19.60
2023-12-05T12:02:33.347Z,18.52
2023-12-05T12:05:01.949Z,17.88
2023-12-05T12:07:29.269Z,18.70
2023-12-05T12:09:57.356Z,18.63
2023-12-05T12:12:25.465Z,19.38
2023-12-05T12:14:54.460Z,18.33
2023-12-05T12:17:24.366Z,17.50
2023-12-05T12:19:52.061Z,19.30
2023-12-05T12:22:21.415Z,18.95
2023-12-05T12:24:48.592Z,18.13
2023-12-05T12:27:15.489Z,17.25
2023-12-05T12:29:59.497Z,17.90
2023-12-05T12:32:26.735Z,17.48
2023-12-05T12:34:55.195Z,18.73
2023-12-05T12:39:53.054Z,18.50
2023-12-05T12:42:20.055Z,18.45
2023-12-05T12:44:47.898Z,17.02
2023-12-05T12:47:15.554Z,18.45
2023-12-05T12:49:43.750Z,19.05
2023-12-05T12:52:11.299Z,19.42
2023-12-05T12:54:38.935Z,19.27
2023-12-05T12:57:08.226Z,18.77
2023-12-05T12:59:35.416Z,19.00
2023-12-05T13:02:04.090Z,18.17
2023-12-05T13:04:37.889Z,18.60
2023-12-05T13:09:33.280Z,18.95
2023-12-05T13:12:00.546Z,18.48
2023-12-05T13:14:27.965Z,18.65
2023-12-05T13:16:54.793Z,18.38
2023-12-05T13:19:32.333Z,17.48
2023-12-05T13:21:59.615Z,18.23
2023-12-05T13:24:28.405Z,18.63
2023-12-05T13:26:55.417Z,19.48
2023-12-05T13:29:22.575Z,18.15
2023-12-05T13:31:49.967Z,18.83
2023-12-05T13:34:17.272Z,17.00
2023-12-05T13:36:47.788Z,18.88
2023-12-05T13:39:16.669Z,19.15
2023-12-05T13:41:46.622Z,20.60
2023-12-05T13:44:15.834Z,20.52
2023-12-05T13:46:42.858Z,19.98
2023-12-05T13:49:15.363Z,19.77
2023-12-05T13:51:45.082Z,19.98
2023-12-05T13:54:13.355Z,21.05
2023-12-05T13:56:40.312Z,19.60
2023-12-05T13:59:07.409Z,21.63
2023-12-05T14:01:35.411Z,20.13
2023-12-05T14:04:05.777Z,20.63
2023-12-05T14:06:33.070Z,19.67
2023-12-05T14:09:00.230Z,21.30
2023-12-05T14:11:27.046Z,20.33
2023-12-05T14:13:54.145Z,19.98
2023-12-05T14:16:20.978Z,18.38
2023-12-05T14:18:48.559Z,19.83
2023-12-05T14:21:15.692Z,19.60
2023-12-05T14:23:45.558Z,21.17
2023-12-05T14:26:12.626Z,19.95
2023-12-05T14:28:40.347Z,20.90
2023-12-05T14:31:07.290Z,21.63
2023-12-05T14:33:35.796Z,20.13
2023-12-05T14:36:03.550Z,20.00
2023-12-05T14:38:33.050Z,22.85
2023-12-05T14:41:00.072Z,22.13
2023-12-05T14:43:27.695Z,20.80
2023-12-05T14:45:54.529Z,21.00
2023-12-05T14:48:25.148Z,22.38
2023-12-05T14:50:52.793Z,20.33
2023-12-05T14:53:19.892Z,20.67
2023-12-05T14:55:46.807Z,19.75
2023-12-05T14:58:14.369Z,20.38
2023-12-05T15:00:41.302Z,18.67
2023-12-05T15:03:08.800Z,21.30
2023-12-05T15:05:36.142Z,21.38
2023-12-05T15:08:04.817Z,20.15
2023-12-05T15:10:34.126Z,19.52
2023-12-05T15:13:01.269Z,20.00
2023-12-05T15:15:29.251Z,21.38
2023-12-05T15:17:56.462Z,19.42
2023-12-05T15:20:24.479Z,19.92
2023-12-05T15:22:52.432Z,20.10
2023-12-05T15:25:19.384Z,18.90
2023-12-05T15:27:46.806Z,19.77
2023-12-05T15:30:14.520Z,20.35
2023-12-05T15:32:53.483Z,20.40
2023-12-05T15:35:24.065Z,19.27
2023-12-05T15:37:51.667Z,19.10
2023-12-05T15:40:18.658Z,20.40
2023-12-05T15:42:52.955Z,17.73
2023-12-05T15:45:24.155Z,20.58
2023-12-05T15:47:51.451Z,19.83
2023-12-05T15:50:19.746Z,18.40
2023-12-05T15:52:51.035Z,20.23
2023-12-05T15:55:17.990Z,18.83
2023-12-05T15:57:45.781Z,19.13
2023-12-05T16:00:13.455Z,19.48
2023-12-05T16:02:42.647Z,19.98
2023-12-05T16:05:09.864Z,19.80
2023-12-05T16:07:37.667Z,20.15
2023-12-05T16:10:05.887Z,20.25
2023-12-05T16:12:33.113Z,21.40
2023-12-05T16:15:00.129Z,20.08
2023-12-05T16:17:27.322Z,20.27
2023-12-05T16:19:57.073Z,20.88
2023-12-05T16:22:24.841Z,20.67
2023-12-05T16:24:52.825Z,21.27
2023-12-05T16:27:25.423Z,20.95
2023-12-05T16:29:52.320Z,22.42
2023-12-05T16:32:19.577Z,19.45
2023-12-05T16:34:46.765Z,19.50
2023-12-05T16:37:14.579Z,19.73
2023-12-05T16:39:41.509Z,22.02
2023-12-05T16:42:11.924Z,20.75
2023-12-05T16:44:46.996Z,21.60
2023-12-05T16:47:14.632Z,21.15
2023-12-05T16:49:48.088Z,21.98
2023-12-05T16:52:18.083Z,21.00
2023-12-05T16:54:45.002Z,22.13
2023-12-05T16:57:13.166Z,22.83
2023-12-05T16:59:43.815Z,21.83
2023-12-05T17:02:14.246Z,24.40
2023-12-05T17:04:41.278Z,23.67
2023-12-05T17:07:11.135Z,23.60
2023-12-05T17:09:38.111Z,21.30
2023-12-05T17:12:11.775Z,23.10
2023-12-05T17:14:38.648Z,24.02
2023-12-05T17:17:05.799Z,23.77
2023-12-05T17:19:32.888Z,23.02
2023-12-05T17:22:01.165Z,25.02
2023-12-05T17:24:28.199Z,22.50
2023-12-05T17:26:55.489Z,21.63
2023-12-05T17:29:22.445Z,23.42
2023-12-05T17:31:49.535Z,23.02
2023-12-05T17:34:17.524Z,21.98
2023-12-05T17:36:47.754Z,23.98
2023-12-05T17:39:15.636Z,21.33
2023-12-05T17:41:43.438Z,23.38
2023-12-05T17:44:10.206Z,21.40
2023-12-05T17:46:37.472Z,23.05
2023-12-05T17:49:04.496Z,22.33
2023-12-05T17:51:31.922Z,22.75
2023-12-05T17:53:58.850Z,21.80
2023-12-05T17:56:26.109Z,23.27
2023-12-05T17:58:54.576Z,24.27
2023-12-05T18:01:21.817Z,20.58
2023-12-05T18:03:49.644Z,22.77
2023-12-05T18:06:20.248Z,21.13
2023-12-05T18:08:48.006Z,18.52
2023-12-05T18:11:17.545Z,22.00
2023-12-05T18:13:44.338Z,21.75
2023-12-05T18:16:14.676Z,21.73
2023-12-05T18:18:42.437Z,23.23
2023-12-05T18:21:12.285Z,22.25
2023-12-05T18:23:40.544Z,22.90
2023-12-05T18:26:11.256Z,21.58
2023-12-05T18:28:38.139Z,22.50
2023-12-05T18:31:14.258Z,22.17
2023-12-05T18:33:41.492Z,21.27
2023-12-05T18:36:11.935Z,21.65
2023-12-05T18:38:41.688Z,22.35
2023-12-05T18:41:08.799Z,20.10
2023-12-05T18:43:37.131Z,21.35
2023-12-05T18:46:05.070Z,22.70
2023-12-05T18:48:32.859Z,22.67
2023-12-05T18:51:01.106Z,21.85
2023-12-05T18:53:29.718Z,20.75
2023-12-05T18:56:01.384Z,21.88
2023-12-05T18:58:28.367Z,21.70
2023-12-05T19:00:55.509Z,21.30
2023-12-05T19:03:22.453Z,22.73
2023-12-05T19:05:51.115Z,22.00
2023-12-05T19:08:18.602Z,23.17
2023-12-05T19:10:45.970Z,22.50
2023-12-05T19:13:13.819Z,22.90
2023-12-05T19:15:40.850Z,21.38
2023-12-05T19:18:07.973Z,22.15
2023-12-05T19:20:35.224Z,23.17
2023-12-05T19:23:02.141Z,23.95
2023-12-05T19:25:29.348Z,22.90
2023-12-05T19:27:56.666Z,21.80
2023-12-05T19:30:24.020Z,24.70
2023-12-05T19:32:51.948Z,26.27
2023-12-05T19:35:19.094Z,23.85
2023-12-05T19:37:46.868Z,23.50
2023-12-05T19:40:13.972Z,20.48
2023-12-05T19:42:41.760Z,22.67
2023-12-05T19:45:09.242Z,24.05
2023-12-05T19:47:36.760Z,23.00
2023-12-05T19:50:04.415Z,21.67
2023-12-05T19:52:31.270Z,24.20
2023-12-05T19:54:58.491Z,21.98
2023-12-05T19:57:25.594Z,21.83
2023-12-05T19:59:52.744Z,23.20
2023-12-05T20:02:19.526Z,23.05
2023-12-05T20:04:47.403Z,23.30
2023-12-05T20:07:14.467Z,22.65
2023-12-05T20:09:42.248Z,21.95
2023-12-05T20:12:09.204Z,21.50
2023-12-05T20:14:36.561Z,23.60
2023-12-05T20:17:04.454Z,23.48
2023-12-05T20:19:31.721Z,23.05
2023-12-05T20:21:58.777Z,22.25
2023-12-05T20:24:26.074Z,24.73
2023-12-05T20:26:53.323Z,25.65
2023-12-05T20:29:20.399Z,23.25
2023-12-05T20:31:47.202Z,25.98
2023-12-05T20:34:14.399Z,23.20
2023-12-05T20:36:41.751Z,22.52
2023-12-05T20:39:10.404Z,22.90
2023-12-05T20:41:37.298Z,23.00
2023-12-05T20:44:04.824Z,21.42
2023-12-05T20:46:31.770Z,23.08
2023-12-05T20:48:58.993Z,21.85
2023-12-05T20:51:25.915Z,23.17
2023-12-05T20:53:54.679Z,22.60
2023-12-05T20:56:24.728Z,21.30
2023-12-05T20:58:51.854Z,22.55
2023-12-05T21:01:19.988Z,21.90
2023-12-05T21:03:47.621Z,23.42
2023-12-05T21:06:14.663Z,22.45
2023-12-05T21:09:10.004Z,21.67
2023-12-05T21:11:28.711Z,21.90
2023-12-05T21:13:56.150Z,23.88
2023-12-05T21:16:23.086Z,23.85
2023-12-05T21:18:50.999Z,23.17
2023-12-05T21:21:18.774Z,23.85
2023-12-05T21:23:46.289Z,22.63
2023-12-05T21:26:15.448Z,21.00
2023-12-05T21:28:42.633Z,21.70
2023-12-05T21:31:10.277Z,22.70
2023-12-05T21:33:37.773Z,24.52
2023-12-05T21:36:05.154Z,22.88
2023-12-05T21:38:32.402Z,22.30
2023-12-05T21:40:59.347Z,22.55
2023-12-05T21:43:28.019Z,21.77
2023-12-05T21:45:57.376Z,21.48
2023-12-05T21:48:25.065Z,21.98
2023-12-05T21:50:51.969Z,21.27
2023-12-05T21:53:19.145Z,22.38
2023-12-05T21:55:45.972Z,21.40
2023-12-05T21:58:13.225Z,22.08
2023-12-05T22:00:40.194Z,21.75
2023-12-05T22:03:07.335Z,21.17
2023-12-05T22:05:34.206Z,22.70
2023-12-05T22:08:01.292Z,21.98
2023-12-05T22:10:28.132Z,22.50
2023-12-05T22:12:55.277Z,21.17
2023-12-05T22:15:22.340Z,20.83
2023-12-05T22:17:50.441Z,21.63
2023-12-05T22:20:17.724Z,21.10
2023-12-05T22:22:45.003Z,21.75
2023-12-05T22:25:12.126Z,20.25
2023-12-05T22:27:39.350Z,22.42
2023-12-05T22:30:07.239Z,20.00
2023-12-05T22:32:34.680Z,21.00
2023-12-05T22:35:01.653Z,23.13
2023-12-05T22:37:28.872Z,21.33
2023-12-05T22:39:55.920Z,23.17
2023-12-05T22:42:24.709Z,21.77
2023-12-05T22:44:51.623Z,22.17
2023-12-05T22:47:19.013Z,22.02
2023-12-05T22:49:48.705Z,21.98
2023-12-05T22:52:16.086Z,22.73
2023-12-05T22:54:42.976Z,22.67
2023-12-05T22:57:10.229Z,24.35
2023-12-05T22:59:38.401Z,23.58
2023-12-05T23:02:05.520Z,23.83
2023-12-05T23:04:32.478Z,22.90
2023-12-05T23:06:59.595Z,23.30
2023-12-05T23:09:26.410Z,21.55
2023-12-05T23:11:53.536Z,22.27
2023-12-05T23:14:20.397Z,24.13
2023-12-05T23:16:47.517Z,23.45
2023-12-05T23:19:14.692Z,23.90
2023-12-05T23:21:42.117Z,24.63
2023-12-05T23:24:09.071Z,23.65
2023-12-05T23:26:36.183Z,22.25
2023-12-05T23:29:03.070Z,24.48
2023-12-05T23:31:30.165Z,24.85
2023-12-05T23:33:57.074Z,26.65
2023-12-05T23:36:24.213Z,25.10
2023-12-05T23:38:51.660Z,25.83
2023-12-05T23:41:18.810Z,26.27
2023-12-05T23:43:45.647Z,24.83
2023-12-05T23:46:15.672Z,25.98
2023-12-05T23:48:42.773Z,24.50
2023-12-05T23:51:09.934Z,26.27
2023-12-05T23:53:37.237Z,24.20
2023-12-05T23:56:04.554Z,23.73
2023-12-05T23:58:31.324Z,25.27
